sensor_id;sensor_type;location;lat;lon;timestamp;pressure;altitude;pressure_sealevel;temperature;humidity
44198;BME280;30157;55.512;37.764;2024-01-07T00:00:02;100164.38;;;-18.82;78.39
44198;BME280;30157;55.512;37.764;2024-01-07T00:02:31;100171.50;;;-18.78;78.04
44198;BME280;30157;55.512;37.764;2024-01-07T00:04:57;100152.94;;;-18.88;78.44
44198;BME280;30157;55.512;37.764;2024-01-07T00:07:23;100169.53;;;-18.80;78.24
44198;BME280;30157;55.512;37.764;2024-01-07T00:09:49;100159.09;;;-18.85;78.21
44198;BME280;30157;55.512;37.764;2024-01-07T00:12:18;100168.47;;;-18.82;77.99
44198;BME280;30157;55.512;37.764;2024-01-07T00:14:43;100170.94;;;-18.82;78.42
44198;BME280;30157;55.512;37.764;2024-01-07T00:17:10;100177.69;;;-18.88;78.06
44198;BME280;30157;55.512;37.764;2024-01-07T00:19:36;100146.91;;;-19.12;78.06
44198;BME280;30157;55.512;37.764;2024-01-07T00:22:03;100177.50;;;-18.97;78.02
44198;BME280;30157;55.512;37.764;2024-01-07T00:24:29;100137.19;;;-19.18;78.31
44198;BME280;30157;55.512;37.764;2024-01-07T00:26:55;100204.03;;;-18.89;78.64
44198;BME280;30157;55.512;37.764;2024-01-07T00:29:21;100210.59;;;-18.89;78.29
44198;BME280;30157;55.512;37.764;2024-01-07T00:31:47;100203.50;;;-18.93;78.25
44198;BME280;30157;55.512;37.764;2024-01-07T00:34:13;100209.16;;;-18.95;77.84
44198;BME280;30157;55.512;37.764;2024-01-07T00:36:38;100239.56;;;-18.96;78.39
44198;BME280;30157;55.512;37.764;2024-01-07T00:39:05;100220.28;;;-18.98;78.47
44198;BME280;30157;55.512;37.764;2024-01-07T00:41:31;100214.47;;;-18.99;78.78
44198;BME280;30157;55.512;37.764;2024-01-07T00:43:57;100223.16;;;-18.88;78.46
44198;BME280;30157;55.512;37.764;2024-01-07T00:46:22;100166.50;;;-19.21;78.28
44198;BME280;30157;55.512;37.764;2024-01-07T00:48:48;100238.69;;;-18.89;78.19
44198;BME280;30157;55.512;37.764;2024-01-07T00:51:14;100170.38;;;-19.30;77.56
44198;BME280;30157;55.512;37.764;2024-01-07T00:53:40;100257.25;;;-18.92;77.57
44198;BME280;30157;55.512;37.764;2024-01-07T00:56:06;100221.31;;;-19.18;77.82
44198;BME280;30157;55.512;37.764;2024-01-07T00:58:32;100276.16;;;-19.00;77.77
44198;BME280;30157;55.512;37.764;2024-01-07T01:00:57;100276.88;;;-19.01;78.06
44198;BME280;30157;55.512;37.764;2024-01-07T01:03:26;100206.94;;;-19.42;77.90
44198;BME280;30157;55.512;37.764;2024-01-07T01:05:52;100218.06;;;-19.38;77.48
44198;BME280;30157;55.512;37.764;2024-01-07T01:08:18;100270.25;;;-19.22;77.62
44198;BME280;30157;55.512;37.764;2024-01-07T01:10:44;100276.81;;;-19.23;77.43
44198;BME280;30157;55.512;37.764;2024-01-07T01:13:09;100281.53;;;-19.32;77.70
44198;BME280;30157;55.512;37.764;2024-01-07T01:15:36;100219.94;;;-19.65;77.82
44198;BME280;30157;55.512;37.764;2024-01-07T01:18:02;100297.97;;;-19.25;78.04
44198;BME280;30157;55.512;37.764;2024-01-07T01:20:28;100282.97;;;-19.26;77.88
44198;BME280;30157;55.512;37.764;2024-01-07T01:22:54;100295.91;;;-19.22;78.17
44198;BME280;30157;55.512;37.764;2024-01-07T01:25:19;100309.47;;;-19.25;78.15
44198;BME280;30157;55.512;37.764;2024-01-07T01:27:46;100237.75;;;-19.67;77.78
44198;BME280;30157;55.512;37.764;2024-01-07T01:30:13;100308.03;;;-19.31;77.72
44198;BME280;30157;55.512;37.764;2024-01-07T01:32:39;100300.97;;;-19.35;77.75
44198;BME280;30157;55.512;37.764;2024-01-07T01:35:06;100299.00;;;-19.37;77.50
44198;BME280;30157;55.512;37.764;2024-01-07T01:37:31;100328.19;;;-19.28;77.74
44198;BME280;30157;55.512;37.764;2024-01-07T01:40:00;100315.59;;;-19.43;77.89
44198;BME280;30157;55.512;37.764;2024-01-07T01:42:26;100341.56;;;-19.40;77.56
44198;BME280;30157;55.512;37.764;2024-01-07T01:44:52;100342.47;;;-19.39;77.96
44198;BME280;30157;55.512;37.764;2024-01-07T01:47:23;100271.09;;;-19.85;78.15
44198;BME280;30157;55.512;37.764;2024-01-07T01:49:49;100349.69;;;-19.41;77.60
44198;BME280;30157;55.512;37.764;2024-01-07T01:52:15;100349.91;;;-19.39;77.82
44198;BME280;30157;55.512;37.764;2024-01-07T01:54:41;100344.78;;;-19.34;77.71
44198;BME280;30157;55.512;37.764;2024-01-07T01:57:08;100275.16;;;-19.71;77.53
44198;BME280;30157;55.512;37.764;2024-01-07T01:59:38;100344.44;;;-19.30;77.36
44198;BME280;30157;55.512;37.764;2024-01-07T02:02:04;100348.66;;;-19.36;77.13
44198;BME280;30157;55.512;37.764;2024-01-07T02:04:31;100373.63;;;-19.27;77.25
44198;BME280;30157;55.512;37.764;2024-01-07T02:06:57;100374.16;;;-19.30;77.64
44198;BME280;30157;55.512;37.764;2024-01-07T02:09:22;100366.88;;;-19.35;76.69
44198;BME280;30157;55.512;37.764;2024-01-07T02:12:04;100357.66;;;-19.43;76.84
44198;BME280;30157;55.512;37.764;2024-01-07T02:14:31;100179.56;;;-20.54;76.93
44198;BME280;30157;55.512;37.764;2024-01-07T02:16:58;100347.16;;;-19.55;76.60
44198;BME280;30157;55.512;37.764;2024-01-07T02:19:24;100328.16;;;-19.69;76.61
44198;BME280;30157;55.512;37.764;2024-01-07T02:21:51;100334.22;;;-19.60;76.75
44198;BME280;30157;55.512;37.764;2024-01-07T02:24:17;100316.50;;;-19.70;76.25
44198;BME280;30157;55.512;37.764;2024-01-07T02:26:43;100382.63;;;-19.28;76.62
44198;BME280;30157;55.512;37.764;2024-01-07T02:29:09;100380.53;;;-19.24;76.05
44198;BME280;30157;55.512;37.764;2024-01-07T02:31:35;100385.31;;;-19.26;76.04
44198;BME280;30157;55.512;37.764;2024-01-07T02:34:00;100396.59;;;-19.28;76.17
44198;BME280;30157;55.512;37.764;2024-01-07T02:36:26;100315.25;;;-19.74;75.69
44198;BME280;30157;55.512;37.764;2024-01-07T02:38:52;100385.22;;;-19.40;76.14
44198;BME280;30157;55.512;37.764;2024-01-07T02:41:17;100348.84;;;-19.69;75.83
44198;BME280;30157;55.512;37.764;2024-01-07T02:43:45;100372.53;;;-19.64;75.93
44198;BME280;30157;55.512;37.764;2024-01-07T02:46:11;100345.06;;;-19.80;76.02
44198;BME280;30157;55.512;37.764;2024-01-07T02:48:37;100354.84;;;-19.67;76.19
44198;BME280;30157;55.512;37.764;2024-01-07T02:51:07;100380.16;;;-19.55;75.49
44198;BME280;30157;55.512;37.764;2024-01-07T02:53:33;100392.31;;;-19.64;76.16
44198;BME280;30157;55.512;37.764;2024-01-07T02:55:59;100394.91;;;-19.69;76.45
44198;BME280;30157;55.512;37.764;2024-01-07T02:58:25;100410.78;;;-19.74;76.35
44198;BME280;30157;55.512;37.764;2024-01-07T03:00:51;100225.81;;;-20.93;76.33
44198;BME280;30157;55.512;37.764;2024-01-07T03:03:17;100413.41;;;-19.80;76.92
44198;BME280;30157;55.512;37.764;2024-01-07T03:05:43;100423.09;;;-19.82;77.09
44198;BME280;30157;55.512;37.764;2024-01-07T03:08:08;100432.97;;;-19.82;76.53
44198;BME280;30157;55.512;37.764;2024-01-07T03:10:34;100350.53;;;-20.30;76.01
44198;BME280;30157;55.512;37.764;2024-01-07T03:13:00;100431.66;;;-19.92;76.04
44198;BME280;30157;55.512;37.764;2024-01-07T03:15:27;100440.25;;;-19.96;76.00
44198;BME280;30157;55.512;37.764;2024-01-07T03:17:52;100451.19;;;-20.01;75.90
44198;BME280;30157;55.512;37.764;2024-01-07T03:20:18;100373.97;;;-20.46;75.58
44198;BME280;30157;55.512;37.764;2024-01-07T03:22:44;100450.09;;;-20.03;75.59
44198;BME280;30157;55.512;37.764;2024-01-07T03:25:10;100447.06;;;-20.08;75.67
44198;BME280;30157;55.512;37.764;2024-01-07T03:27:36;100443.88;;;-20.07;76.31
44198;BME280;30157;55.512;37.764;2024-01-07T03:30:02;100455.09;;;-19.96;75.99
44198;BME280;30157;55.512;37.764;2024-01-07T03:32:30;100404.13;;;-20.28;75.37
44198;BME280;30157;55.512;37.764;2024-01-07T03:34:56;100463.41;;;-19.96;74.65
44198;BME280;30157;55.512;37.764;2024-01-07T03:37:21;100460.56;;;-19.99;75.05
44198;BME280;30157;55.512;37.764;2024-01-07T03:39:47;100469.03;;;-19.97;74.41
44198;BME280;30157;55.512;37.764;2024-01-07T03:42:13;100461.06;;;-20.01;74.10
44198;BME280;30157;55.512;37.764;2024-01-07T03:44:39;100446.22;;;-20.21;74.30
44198;BME280;30157;55.512;37.764;2024-01-07T03:47:05;100471.88;;;-20.14;74.50
44198;BME280;30157;55.512;37.764;2024-01-07T03:49:31;100403.97;;;-20.63;73.70
44198;BME280;30157;55.512;37.764;2024-01-07T03:51:57;100468.97;;;-20.37;73.34
44198;BME280;30157;55.512;37.764;2024-01-07T03:54:23;100461.03;;;-20.54;73.58
44198;BME280;30157;55.512;37.764;2024-01-07T03:56:48;100450.56;;;-20.79;73.24
44198;BME280;30157;55.512;37.764;2024-01-07T03:59:14;100503.19;;;-20.53;73.19
44198;BME280;30157;55.512;37.764;2024-01-07T04:01:42;100504.59;;;-20.68;73.80
44198;BME280;30157;55.512;37.764;2024-01-07T04:04:08;100500.00;;;-20.72;73.40
44198;BME280;30157;55.512;37.764;2024-01-07T04:06:34;100503.66;;;-20.88;73.25
44198;BME280;30157;55.512;37.764;2024-01-07T04:09:00;100511.66;;;-20.96;73.80
44198;BME280;30157;55.512;37.764;2024-01-07T04:11:26;100510.34;;;-21.00;73.47
44198;BME280;30157;55.512;37.764;2024-01-07T04:13:52;100543.13;;;-21.01;73.39
44198;BME280;30157;55.512;37.764;2024-01-07T04:16:21;100532.28;;;-21.09;73.43
44198;BME280;30157;55.512;37.764;2024-01-07T04:18:47;100541.34;;;-21.15;74.01
44198;BME280;30157;55.512;37.764;2024-01-07T04:21:13;100522.97;;;-21.30;74.32
44198;BME280;30157;55.512;37.764;2024-01-07T04:23:39;100477.16;;;-21.67;73.96
44198;BME280;30157;55.512;37.764;2024-01-07T04:26:09;100549.50;;;-21.35;74.07
44198;BME280;30157;55.512;37.764;2024-01-07T04:28:37;100553.03;;;-21.33;74.34
44198;BME280;30157;55.512;37.764;2024-01-07T04:31:03;100467.34;;;-21.85;74.21
44198;BME280;30157;55.512;37.764;2024-01-07T04:33:29;100474.53;;;-21.87;73.92
44198;BME280;30157;55.512;37.764;2024-01-07T04:35:55;100564.78;;;-21.37;74.02
44198;BME280;30157;55.512;37.764;2024-01-07T04:38:24;100500.19;;;-21.79;73.71
44198;BME280;30157;55.512;37.764;2024-01-07T04:40:50;100574.69;;;-21.43;73.84
44198;BME280;30157;55.512;37.764;2024-01-07T04:43:18;100568.50;;;-21.46;73.63
44198;BME280;30157;55.512;37.764;2024-01-07T04:45:44;100498.97;;;-21.88;73.79
44198;BME280;30157;55.512;37.764;2024-01-07T04:48:09;100454.94;;;-22.11;73.77
44198;BME280;30157;55.512;37.764;2024-01-07T04:50:35;100557.84;;;-21.53;73.65
44198;BME280;30157;55.512;37.764;2024-01-07T04:53:01;100582.38;;;-21.47;73.53
44198;BME280;30157;55.512;37.764;2024-01-07T04:55:29;100522.91;;;-21.87;73.46
44198;BME280;30157;55.512;37.764;2024-01-07T04:57:55;100526.66;;;-21.96;73.26
44198;BME280;30157;55.512;37.764;2024-01-07T05:00:20;100541.81;;;-21.93;73.40
44198;BME280;30157;55.512;37.764;2024-01-07T05:02:46;100605.03;;;-21.62;73.17
44198;BME280;30157;55.512;37.764;2024-01-07T05:05:12;100606.00;;;-21.68;73.20
44198;BME280;30157;55.512;37.764;2024-01-07T05:07:38;100595.88;;;-21.82;73.30
44198;BME280;30157;55.512;37.764;2024-01-07T05:10:04;100602.03;;;-21.91;73.13
44198;BME280;30157;55.512;37.764;2024-01-07T05:12:30;100616.53;;;-21.87;73.28
44198;BME280;30157;55.512;37.764;2024-01-07T05:14:56;100621.69;;;-21.86;73.27
44198;BME280;30157;55.512;37.764;2024-01-07T05:17:22;100628.19;;;-21.86;73.25
44198;BME280;30157;55.512;37.764;2024-01-07T05:19:48;100600.75;;;-21.95;73.22
44198;BME280;30157;55.512;37.764;2024-01-07T05:22:14;100598.34;;;-22.01;73.58
44198;BME280;30157;55.512;37.764;2024-01-07T05:24:39;100616.06;;;-21.85;73.90
44198;BME280;30157;55.512;37.764;2024-01-07T05:27:05;100619.22;;;-21.86;73.53
44198;BME280;30157;55.512;37.764;2024-01-07T05:29:32;100616.81;;;-21.91;73.54
44198;BME280;30157;55.512;37.764;2024-01-07T05:32:01;100559.22;;;-22.23;73.41
44198;BME280;30157;55.512;37.764;2024-01-07T05:34:28;100619.28;;;-21.91;73.38
44198;BME280;30157;55.512;37.764;2024-01-07T05:36:54;100549.97;;;-22.37;72.96
44198;BME280;30157;55.512;37.764;2024-01-07T05:39:22;100616.28;;;-22.02;73.34
44198;BME280;30157;55.512;37.764;2024-01-07T05:41:48;100631.47;;;-21.98;73.32
44198;BME280;30157;55.512;37.764;2024-01-07T05:44:14;100645.16;;;-22.01;73.95
44198;BME280;30157;55.512;37.764;2024-01-07T05:46:40;100645.63;;;-22.03;73.76
44198;BME280;30157;55.512;37.764;2024-01-07T05:49:06;100584.44;;;-22.37;73.81
44198;BME280;30157;55.512;37.764;2024-01-07T05:51:32;100675.66;;;-21.87;74.37
44198;BME280;30157;55.512;37.764;2024-01-07T05:54:00;100681.44;;;-21.81;74.42
44198;BME280;30157;55.512;37.764;2024-01-07T05:56:25;100681.84;;;-21.78;74.71
44198;BME280;30157;55.512;37.764;2024-01-07T05:58:51;100668.97;;;-21.88;74.27
44198;BME280;30157;55.512;37.764;2024-01-07T06:01:20;100681.16;;;-21.77;74.45
44198;BME280;30157;55.512;37.764;2024-01-07T06:03:47;100713.50;;;-21.62;74.11
44198;BME280;30157;55.512;37.764;2024-01-07T06:06:16;100725.06;;;-21.56;74.22
44198;BME280;30157;55.512;37.764;2024-01-07T06:08:42;100713.22;;;-21.58;73.48
44198;BME280;30157;55.512;37.764;2024-01-07T06:11:08;100707.03;;;-21.68;73.87
44198;BME280;30157;55.512;37.764;2024-01-07T06:13:35;100719.22;;;-21.56;73.25
44198;BME280;30157;55.512;37.764;2024-01-07T06:16:00;100692.66;;;-21.83;72.58
44198;BME280;30157;55.512;37.764;2024-01-07T06:18:26;100720.53;;;-21.71;72.09
44198;BME280;30157;55.512;37.764;2024-01-07T06:20:52;100726.19;;;-21.78;72.11
44198;BME280;30157;55.512;37.764;2024-01-07T06:23:18;100734.31;;;-21.85;71.71
44198;BME280;30157;55.512;37.764;2024-01-07T06:25:43;100689.66;;;-22.18;72.01
44198;BME280;30157;55.512;37.764;2024-01-07T06:28:09;100671.34;;;-22.25;71.54
44198;BME280;30157;55.512;37.764;2024-01-07T06:30:38;100745.28;;;-21.83;71.90
44198;BME280;30157;55.512;37.764;2024-01-07T06:33:04;100755.03;;;-21.71;72.46
44198;BME280;30157;55.512;37.764;2024-01-07T06:35:30;100747.59;;;-21.66;72.43
44198;BME280;30157;55.512;37.764;2024-01-07T06:37:56;100764.38;;;-21.07;72.27
44198;BME280;30157;55.512;37.764;2024-01-07T06:40:22;100732.78;;;-20.21;72.12
44198;BME280;30157;55.512;37.764;2024-01-07T06:42:48;100761.84;;;-18.63;69.55
44198;BME280;30157;55.512;37.764;2024-01-07T06:45:17;100677.84;;;-17.99;67.14
44198;BME280;30157;55.512;37.764;2024-01-07T06:47:43;100691.59;;;-17.11;62.97
44198;BME280;30157;55.512;37.764;2024-01-07T06:50:10;100742.19;;;-16.24;61.23
44198;BME280;30157;55.512;37.764;2024-01-07T06:52:36;100591.66;;;-16.50;58.79
44198;BME280;30157;55.512;37.764;2024-01-07T06:55:02;100759.22;;;-14.94;57.36
44198;BME280;30157;55.512;37.764;2024-01-07T06:57:30;100768.59;;;-14.61;55.39
44198;BME280;30157;55.512;37.764;2024-01-07T06:59:57;100763.84;;;-14.43;53.70
44198;BME280;30157;55.512;37.764;2024-01-07T07:02:22;100761.91;;;-14.46;52.27
44198;BME280;30157;55.512;37.764;2024-01-07T07:04:48;100766.47;;;-14.58;52.15
44198;BME280;30157;55.512;37.764;2024-01-07T07:07:16;100768.75;;;-14.75;52.02
44198;BME280;30157;55.512;37.764;2024-01-07T07:09:42;100778.53;;;-14.54;52.69
44198;BME280;30157;55.512;37.764;2024-01-07T07:12:08;100774.41;;;-14.23;52.25
44198;BME280;30157;55.512;37.764;2024-01-07T07:14:34;100766.16;;;-13.98;50.53
44198;BME280;30157;55.512;37.764;2024-01-07T07:17:00;100763.53;;;-13.68;49.98
44198;BME280;30157;55.512;37.764;2024-01-07T07:19:26;100768.09;;;-13.16;49.71
44198;BME280;30157;55.512;37.764;2024-01-07T07:21:52;100697.06;;;-13.43;47.35
44198;BME280;30157;55.512;37.764;2024-01-07T07:24:18;100755.94;;;-12.88;47.83
44198;BME280;30157;55.512;37.764;2024-01-07T07:26:43;100712.03;;;-13.02;46.73
44198;BME280;30157;55.512;37.764;2024-01-07T07:29:09;100770.03;;;-12.97;47.22
44198;BME280;30157;55.512;37.764;2024-01-07T07:31:35;100776.00;;;-13.84;47.07
44198;BME280;30157;55.512;37.764;2024-01-07T07:34:04;100778.94;;;-13.56;47.36
44198;BME280;30157;55.512;37.764;2024-01-07T07:36:30;100774.78;;;-13.08;45.96
44198;BME280;30157;55.512;37.764;2024-01-07T07:38:56;100732.25;;;-13.32;45.66
44198;BME280;30157;55.512;37.764;2024-01-07T07:41:22;100781.19;;;-12.94;46.08
44198;BME280;30157;55.512;37.764;2024-01-07T07:43:47;100789.50;;;-12.61;45.34
44198;BME280;30157;55.512;37.764;2024-01-07T07:46:13;100562.91;;;-14.25;46.36
44198;BME280;30157;55.512;37.764;2024-01-07T07:48:41;100739.25;;;-13.21;46.91
44198;BME280;30157;55.512;37.764;2024-01-07T07:51:07;100812.16;;;-12.85;47.70
44198;BME280;30157;55.512;37.764;2024-01-07T07:53:33;100822.22;;;-13.48;48.19
44198;BME280;30157;55.512;37.764;2024-01-07T07:55:59;100807.31;;;-14.41;48.78
44198;BME280;30157;55.512;37.764;2024-01-07T07:58:25;100809.13;;;-15.08;50.33
44198;BME280;30157;55.512;37.764;2024-01-07T08:00:50;100798.31;;;-15.82;50.93
44198;BME280;30157;55.512;37.764;2024-01-07T08:03:16;100835.63;;;-16.18;51.37
44198;BME280;30157;55.512;37.764;2024-01-07T08:05:42;100842.19;;;-16.41;52.93
44198;BME280;30157;55.512;37.764;2024-01-07T08:08:08;100786.69;;;-17.04;53.78
44198;BME280;30157;55.512;37.764;2024-01-07T08:10:34;100854.06;;;-16.52;53.51
44198;BME280;30157;55.512;37.764;2024-01-07T08:13:01;100820.72;;;-16.18;52.78
44198;BME280;30157;55.512;37.764;2024-01-07T08:15:27;100871.28;;;-16.47;52.46
44198;BME280;30157;55.512;37.764;2024-01-07T08:17:53;100831.47;;;-16.61;52.53
44198;BME280;30157;55.512;37.764;2024-01-07T08:20:18;100869.47;;;-16.62;52.79
44198;BME280;30157;55.512;37.764;2024-01-07T08:22:47;100878.63;;;-16.97;53.51
44198;BME280;30157;55.512;37.764;2024-01-07T08:25:13;100878.75;;;-17.03;54.61
44198;BME280;30157;55.512;37.764;2024-01-07T08:27:41;100864.94;;;-16.94;54.29
44198;BME280;30157;55.512;37.764;2024-01-07T08:30:07;100880.53;;;-15.30;53.58
44198;BME280;30157;55.512;37.764;2024-01-07T08:32:33;100872.19;;;-15.38;51.54
44198;BME280;30157;55.512;37.764;2024-01-07T08:35:01;100879.31;;;-15.41;50.99
44198;BME280;30157;55.512;37.764;2024-01-07T08:37:28;100855.50;;;-15.75;51.05
44198;BME280;30157;55.512;37.764;2024-01-07T08:39:54;100894.06;;;-15.50;52.35
44198;BME280;30157;55.512;37.764;2024-01-07T08:42:20;100883.22;;;-14.46;51.58
44198;BME280;30157;55.512;37.764;2024-01-07T08:44:45;100847.28;;;-14.25;50.92
44198;BME280;30157;55.512;37.764;2024-01-07T08:47:13;100879.44;;;-13.43;49.85
44198;BME280;30157;55.512;37.764;2024-01-07T08:49:38;100887.47;;;-13.45;49.91
44198;BME280;30157;55.512;37.764;2024-01-07T08:52:05;100864.22;;;-13.99;50.30
44198;BME280;30157;55.512;37.764;2024-01-07T08:54:30;100889.94;;;-14.08;51.10
44198;BME280;30157;55.512;37.764;2024-01-07T08:56:56;100886.13;;;-13.97;51.10
44198;BME280;30157;55.512;37.764;2024-01-07T08:59:22;100895.97;;;-13.82;51.79
44198;BME280;30157;55.512;37.764;2024-01-07T09:01:47;100887.16;;;-13.72;52.47
44198;BME280;30157;55.512;37.764;2024-01-07T09:04:16;100876.63;;;-13.69;51.94
44198;BME280;30157;55.512;37.764;2024-01-07T09:06:47;100834.09;;;-14.01;51.07
44198;BME280;30157;55.512;37.764;2024-01-07T09:09:13;100898.59;;;-13.74;51.45
44198;BME280;30157;55.512;37.764;2024-01-07T09:11:38;100837.03;;;-14.12;51.13
44198;BME280;30157;55.512;37.764;2024-01-07T09:14:04;100879.34;;;-14.28;51.44
44198;BME280;30157;55.512;37.764;2024-01-07T09:16:30;100882.13;;;-14.41;53.08
44198;BME280;30157;55.512;37.764;2024-01-07T09:18:57;100886.34;;;-14.33;52.82
44198;BME280;30157;55.512;37.764;2024-01-07T09:21:23;100884.34;;;-14.59;53.01
44198;BME280;30157;55.512;37.764;2024-01-07T09:23:50;100854.56;;;-14.80;53.02
44198;BME280;30157;55.512;37.764;2024-01-07T09:26:16;100873.59;;;-14.74;53.03
44198;BME280;30157;55.512;37.764;2024-01-07T09:28:41;100893.00;;;-14.78;52.04
44198;BME280;30157;55.512;37.764;2024-01-07T09:31:08;100885.13;;;-15.19;52.87
44198;BME280;30157;55.512;37.764;2024-01-07T09:33:34;100886.75;;;-15.34;52.47
44198;BME280;30157;55.512;37.764;2024-01-07T09:36:00;100916.78;;;-15.25;53.31
44198;BME280;30157;55.512;37.764;2024-01-07T09:38:26;100901.13;;;-15.24;53.16
44198;BME280;30157;55.512;37.764;2024-01-07T09:40:52;100891.56;;;-15.35;53.26
44198;BME280;30157;55.512;37.764;2024-01-07T09:43:19;100842.22;;;-15.83;53.39
44198;BME280;30157;55.512;37.764;2024-01-07T09:45:46;100928.38;;;-15.40;53.89
44198;BME280;30157;55.512;37.764;2024-01-07T09:48:13;100913.44;;;-15.47;53.45
44198;BME280;30157;55.512;37.764;2024-01-07T09:50:40;100915.22;;;-15.75;53.12
44198;BME280;30157;55.512;37.764;2024-01-07T09:53:07;100919.53;;;-15.81;54.27
44198;BME280;30157;55.512;37.764;2024-01-07T09:58:33;100888.41;;;-15.99;53.99
44198;BME280;30157;55.512;37.764;2024-01-07T10:00:59;100896.06;;;-15.91;54.21
44198;BME280;30157;55.512;37.764;2024-01-07T10:03:25;100876.88;;;-15.99;54.39
44198;BME280;30157;55.512;37.764;2024-01-07T10:05:51;100913.66;;;-15.89;53.94
44198;BME280;30157;55.512;37.764;2024-01-07T10:08:20;100902.59;;;-16.13;54.12
44198;BME280;30157;55.512;37.764;2024-01-07T10:10:48;100907.75;;;-16.11;54.43
44198;BME280;30157;55.512;37.764;2024-01-07T10:13:16;100859.06;;;-16.38;54.85
44198;BME280;30157;55.512;37.764;2024-01-07T10:15:42;100900.31;;;-16.04;54.99
44198;BME280;30157;55.512;37.764;2024-01-07T10:18:08;100896.78;;;-15.92;54.79
44198;BME280;30157;55.512;37.764;2024-01-07T10:20:35;100928.41;;;-15.69;55.21
44198;BME280;30157;55.512;37.764;2024-01-07T10:23:02;100903.88;;;-15.87;54.48
44198;BME280;30157;55.512;37.764;2024-01-07T10:25:31;100858.53;;;-16.28;54.53
44198;BME280;30157;55.512;37.764;2024-01-07T10:28:02;100919.63;;;-16.30;54.59
44198;BME280;30157;55.512;37.764;2024-01-07T10:30:29;100935.94;;;-16.40;55.25
44198;BME280;30157;55.512;37.764;2024-01-07T10:32:58;100920.41;;;-16.59;55.80
44198;BME280;30157;55.512;37.764;2024-01-07T10:35:34;100891.22;;;-16.81;55.86
44198;BME280;30157;55.512;37.764;2024-01-07T10:38:07;100865.44;;;-17.03;55.98
44198;BME280;30157;55.512;37.764;2024-01-07T10:40:52;100864.88;;;-17.08;56.30
44198;BME280;30157;55.512;37.764;2024-01-07T10:43:21;100679.25;;;-18.29;56.97
44198;BME280;30157;55.512;37.764;2024-01-07T10:46:19;100938.41;;;-16.88;57.15
44198;BME280;30157;55.512;37.764;2024-01-07T10:49:43;100684.00;;;-18.57;57.46
44198;BME280;30157;55.512;37.764;2024-01-07T10:52:43;100939.53;;;-17.14;58.26
44198;BME280;30157;55.512;37.764;2024-01-07T10:55:14;100830.06;;;-17.84;58.59
44198;BME280;30157;55.512;37.764;2024-01-07T11:02:14;100630.50;;;-18.97;58.67
44198;BME280;30157;55.512;37.764;2024-01-07T11:05:42;100952.38;;;-17.03;58.27
44198;BME280;30157;55.512;37.764;2024-01-07T11:11:41;100887.81;;;-17.58;58.39
44198;BME280;30157;55.512;37.764;2024-01-07T11:14:41;100947.91;;;-17.33;59.18
44198;BME280;30157;55.512;37.764;2024-01-07T11:20:05;100673.00;;;-18.67;59.49
44198;BME280;30157;55.512;37.764;2024-01-07T11:22:33;100950.31;;;-16.93;58.94
44198;BME280;30157;55.512;37.764;2024-01-07T11:25:19;100947.25;;;-16.98;58.50
44198;BME280;30157;55.512;37.764;2024-01-07T11:27:51;100955.69;;;-17.10;59.12
44198;BME280;30157;55.512;37.764;2024-01-07T11:30:20;100870.03;;;-17.68;58.68
44198;BME280;30157;55.512;37.764;2024-01-07T11:32:59;100939.97;;;-17.31;59.15
44198;BME280;30157;55.512;37.764;2024-01-07T11:35:59;100952.97;;;-17.19;59.33
44198;BME280;30157;55.512;37.764;2024-01-07T11:38:27;100902.63;;;-17.45;59.67
44198;BME280;30157;55.512;37.764;2024-01-07T11:40:53;100936.34;;;-17.40;59.32
44198;BME280;30157;55.512;37.764;2024-01-07T11:43:20;100957.19;;;-17.25;59.63
44198;BME280;30157;55.512;37.764;2024-01-07T11:45:46;100878.97;;;-17.83;60.13
44198;BME280;30157;55.512;37.764;2024-01-07T11:48:13;100960.50;;;-17.32;60.22
44198;BME280;30157;55.512;37.764;2024-01-07T11:50:39;100963.66;;;-17.40;60.53
44198;BME280;30157;55.512;37.764;2024-01-07T11:53:05;100961.75;;;-17.55;61.00
44198;BME280;30157;55.512;37.764;2024-01-07T11:55:32;100965.50;;;-17.72;61.16
44198;BME280;30157;55.512;37.764;2024-01-07T11:58:03;100883.19;;;-18.30;61.56
44198;BME280;30157;55.512;37.764;2024-01-07T12:00:33;100840.97;;;-18.57;61.75
44198;BME280;30157;55.512;37.764;2024-01-07T12:03:02;100956.84;;;-17.88;61.61
44198;BME280;30157;55.512;37.764;2024-01-07T12:05:29;100974.09;;;-17.83;62.15
44198;BME280;30157;55.512;37.764;2024-01-07T12:07:55;100902.31;;;-18.29;62.42
44198;BME280;30157;55.512;37.764;2024-01-07T12:10:21;100973.47;;;-17.95;62.02
44198;BME280;30157;55.512;37.764;2024-01-07T12:12:49;100990.13;;;-17.94;62.82
44198;BME280;30157;55.512;37.764;2024-01-07T12:15:17;100954.63;;;-18.20;62.85
44198;BME280;30157;55.512;37.764;2024-01-07T12:17:55;100989.34;;;-18.00;62.92
44198;BME280;30157;55.512;37.764;2024-01-07T12:20:20;100931.56;;;-18.39;63.07
44198;BME280;30157;55.512;37.764;2024-01-07T12:22:46;100966.31;;;-18.19;63.47
44198;BME280;30157;55.512;37.764;2024-01-07T12:25:13;100959.81;;;-18.31;63.20
44198;BME280;30157;55.512;37.764;2024-01-07T12:27:40;100922.78;;;-18.50;63.25
44198;BME280;30157;55.512;37.764;2024-01-07T12:30:06;100988.50;;;-18.13;63.10
44198;BME280;30157;55.512;37.764;2024-01-07T12:32:32;100992.09;;;-18.11;63.30
44198;BME280;30157;55.512;37.764;2024-01-07T12:35:02;100940.41;;;-18.41;63.13
44198;BME280;30157;55.512;37.764;2024-01-07T12:37:30;100988.59;;;-18.06;63.12
44198;BME280;30157;55.512;37.764;2024-01-07T12:39:56;100927.63;;;-18.44;62.77
44198;BME280;30157;55.512;37.764;2024-01-07T12:42:29;100998.97;;;-17.96;63.14
44198;BME280;30157;55.512;37.764;2024-01-07T12:44:57;100983.34;;;-18.02;62.85